sensor_id;sensor_type;location;lat;lon;timestamp;pressure;altitude;pressure_sealevel;temperature
78225;BMP280;67498;53.650;10.090;2024-02-14T00:01:14;101452.16;;;6.23
78225;BMP280;67498;53.650;10.090;2024-02-14T00:03:39;101455.13;;;6.22
78225;BMP280;67498;53.650;10.090;2024-02-14T00:06:05;101452.13;;;6.20
78225;BMP280;67498;53.650;10.090;2024-02-14T00:08:31;101456.56;;;6.19
78225;BMP280;67498;53.650;10.090;2024-02-14T00:10:56;101444.28;;;6.16
78225;BMP280;67498;53.650;10.090;2024-02-14T00:13:21;101443.84;;;6.14
78225;BMP280;67498;53.650;10.090;2024-02-14T00:15:47;101445.63;;;6.10
78225;BMP280;67498;53.650;10.090;2024-02-14T00:18:12;101445.97;;;6.08
78225;BMP280;67498;53.650;10.090;2024-02-14T00:20:38;101444.84;;;6.06
78225;BMP280;67498;53.650;10.090;2024-02-14T00:23:04;101451.78;;;6.02
78225;BMP280;67498;53.650;10.090;2024-02-14T00:25:29;101445.84;;;6.01
78225;BMP280;67498;53.650;10.090;2024-02-14T00:27:55;101443.16;;;5.98
78225;BMP280;67498;53.650;10.090;2024-02-14T00:30:20;101439.75;;;5.93
78225;BMP280;67498;53.650;10.090;2024-02-14T00:32:48;101444.56;;;5.91
78225;BMP280;67498;53.650;10.090;2024-02-14T00:35:13;101437.44;;;5.88
78225;BMP280;67498;53.650;10.090;2024-02-14T00:37:39;101440.38;;;5.87
78225;BMP280;67498;53.650;10.090;2024-02-14T00:40:04;101435.88;;;5.84
78225;BMP280;67498;53.650;10.090;2024-02-14T00:42:31;101425.84;;;5.82
78225;BMP280;67498;53.650;10.090;2024-02-14T00:44:56;101428.75;;;5.81
78225;BMP280;67498;53.650;10.090;2024-02-14T00:47:21;101423.94;;;5.79
78225;BMP280;67498;53.650;10.090;2024-02-14T00:49:47;101429.88;;;5.80
78225;BMP280;67498;53.650;10.090;2024-02-14T00:52:12;101420.56;;;5.79
78225;BMP280;67498;53.650;10.090;2024-02-14T00:54:37;101430.22;;;5.78
78225;BMP280;67498;53.650;10.090;2024-02-14T00:57:03;101429.47;;;5.78
78225;BMP280;67498;53.650;10.090;2024-02-14T00:59:28;101426.88;;;5.78
78225;BMP280;67498;53.650;10.090;2024-02-14T01:01:53;101420.94;;;5.77
78225;BMP280;67498;53.650;10.090;2024-02-14T01:04:19;101422.03;;;5.76
78225;BMP280;67498;53.650;10.090;2024-02-14T01:06:44;101421.34;;;5.79
78225;BMP280;67498;53.650;10.090;2024-02-14T01:09:09;101420.25;;;5.80
78225;BMP280;67498;53.650;10.090;2024-02-14T01:11:34;101418.75;;;5.79
78225;BMP280;67498;53.650;10.090;2024-02-14T01:14:00;101412.88;;;5.82
78225;BMP280;67498;53.650;10.090;2024-02-14T01:16:27;101409.97;;;5.84
78225;BMP280;67498;53.650;10.090;2024-02-14T01:18:52;101404.78;;;5.84
78225;BMP280;67498;53.650;10.090;2024-02-14T01:21:17;101403.69;;;5.85
78225;BMP280;67498;53.650;10.090;2024-02-14T01:23:43;101404.09;;;5.87
78225;BMP280;67498;53.650;10.090;2024-02-14T01:26:08;101417.81;;;5.87
78225;BMP280;67498;53.650;10.090;2024-02-14T01:28:33;101411.13;;;5.86
78225;BMP280;67498;53.650;10.090;2024-02-14T01:30:58;101396.66;;;5.85
78225;BMP280;67498;53.650;10.090;2024-02-14T01:33:24;101401.09;;;5.85
78225;BMP280;67498;53.650;10.090;2024-02-14T01:35:49;101393.66;;;5.83
78225;BMP280;67498;53.650;10.090;2024-02-14T01:38:14;101391.75;;;5.80
78225;BMP280;67498;53.650;10.090;2024-02-14T01:40:43;101391.34;;;5.78
78225;BMP280;67498;53.650;10.090;2024-02-14T01:43:10;101382.41;;;5.76
78225;BMP280;67498;53.650;10.090;2024-02-14T01:45:38;101395.69;;;5.74
78225;BMP280;67498;53.650;10.090;2024-02-14T01:48:05;101387.53;;;5.72
78225;BMP280;67498;53.650;10.090;2024-02-14T01:50:31;101380.78;;;5.67
78225;BMP280;67498;53.650;10.090;2024-02-14T01:52:58;101378.84;;;5.64
78225;BMP280;67498;53.650;10.090;2024-02-14T01:55:25;101369.50;;;5.60
78225;BMP280;67498;53.650;10.090;2024-02-14T01:57:52;101376.13;;;5.57
78225;BMP280;67498;53.650;10.090;2024-02-14T02:00:17;101374.97;;;5.55
78225;BMP280;67498;53.650;10.090;2024-02-14T02:02:43;101365.28;;;5.52
78225;BMP280;67498;53.650;10.090;2024-02-14T02:05:09;101365.97;;;5.48
78225;BMP280;67498;53.650;10.090;2024-02-14T02:07:34;101367.00;;;5.44
78225;BMP280;67498;53.650;10.090;2024-02-14T02:10:00;101361.72;;;5.40
78225;BMP280;67498;53.650;10.090;2024-02-14T02:12:26;101366.47;;;5.38
78225;BMP280;67498;53.650;10.090;2024-02-14T02:14:52;101365.31;;;5.36
78225;BMP280;67498;53.650;10.090;2024-02-14T02:17:17;101368.59;;;5.33
78225;BMP280;67498;53.650;10.090;2024-02-14T02:19:43;101354.50;;;5.30
78225;BMP280;67498;53.650;10.090;2024-02-14T02:22:08;101356.25;;;5.26
78225;BMP280;67498;53.650;10.090;2024-02-14T02:24:35;101356.59;;;5.24
78225;BMP280;67498;53.650;10.090;2024-02-14T02:27:01;101345.41;;;5.20
78225;BMP280;67498;53.650;10.090;2024-02-14T02:29:26;101350.59;;;5.20
78225;BMP280;67498;53.650;10.090;2024-02-14T02:31:51;101345.72;;;5.19
78225;BMP280;67498;53.650;10.090;2024-02-14T02:34:17;101339.75;;;5.15
78225;BMP280;67498;53.650;10.090;2024-02-14T02:36:43;101332.66;;;5.12
78225;BMP280;67498;53.650;10.090;2024-02-14T02:39:08;101330.41;;;5.10
78225;BMP280;67498;53.650;10.090;2024-02-14T02:41:34;101337.44;;;5.10
78225;BMP280;67498;53.650;10.090;2024-02-14T02:44:00;101320.81;;;5.11
78225;BMP280;67498;53.650;10.090;2024-02-14T02:46:26;101334.84;;;5.10
78225;BMP280;67498;53.650;10.090;2024-02-14T02:48:52;101322.97;;;5.09
78225;BMP280;67498;53.650;10.090;2024-02-14T02:51:20;101318.13;;;5.07
78225;BMP280;67498;53.650;10.090;2024-02-14T02:53:45;101323.31;;;5.07
78225;BMP280;67498;53.650;10.090;2024-02-14T02:56:10;101313.31;;;5.06
78225;BMP280;67498;53.650;10.090;2024-02-14T02:58:38;101305.88;;;5.04
78225;BMP280;67498;53.650;10.090;2024-02-14T03:01:03;101305.13;;;5.03
78225;BMP280;67498;53.650;10.090;2024-02-14T03:03:32;101289.91;;;5.02
78225;BMP280;67498;53.650;10.090;2024-02-14T03:05:58;101286.59;;;5.01
78225;BMP280;67498;53.650;10.090;2024-02-14T03:08:24;101295.09;;;5.02
78225;BMP280;67498;53.650;10.090;2024-02-14T03:10:51;101288.84;;;5.03
78225;BMP280;67498;53.650;10.090;2024-02-14T03:13:16;101290.28;;;5.00
78225;BMP280;67498;53.650;10.090;2024-02-14T03:15:42;101287.34;;;5.02
78225;BMP280;67498;53.650;10.090;2024-02-14T03:18:09;101295.44;;;5.00
78225;BMP280;67498;53.650;10.090;2024-02-14T03:20:36;101295.44;;;5.00
78225;BMP280;67498;53.650;10.090;2024-02-14T03:23:02;101293.94;;;4.99
78225;BMP280;67498;53.650;10.090;2024-02-14T03:25:29;101292.44;;;4.98
78225;BMP280;67498;53.650;10.090;2024-02-14T03:27:54;101295.44;;;5.00
78225;BMP280;67498;53.650;10.090;2024-02-14T03:30:22;101294.69;;;5.00
78225;BMP280;67498;53.650;10.090;2024-02-14T03:32:48;101283.59;;;4.99
78225;BMP280;67498;53.650;10.090;2024-02-14T03:35:13;101284.31;;;5.00
78225;BMP280;67498;53.650;10.090;2024-02-14T03:37:40;101283.25;;;5.01
78225;BMP280;67498;53.650;10.090;2024-02-14T03:40:06;101272.16;;;5.00
78225;BMP280;67498;53.650;10.090;2024-02-14T03:42:32;101268.41;;;4.98
78225;BMP280;67498;53.650;10.090;2024-02-14T03:44:58;101261.38;;;4.98
78225;BMP280;67498;53.650;10.090;2024-02-14T03:47:28;101267.00;;;5.00
78225;BMP280;67498;53.650;10.090;2024-02-14T03:49:54;101255.88;;;5.00
78225;BMP280;67498;53.650;10.090;2024-02-14T03:52:19;101261.03;;;5.00
78225;BMP280;67498;53.650;10.090;2024-02-14T03:54:46;101261.81;;;5.00
78225;BMP280;67498;53.650;10.090;2024-02-14T03:57:11;101262.13;;;4.99
78225;BMP280;67498;53.650;10.090;2024-02-14T03:59:38;101253.63;;;4.98
78225;BMP280;67498;53.650;10.090;2024-02-14T04:02:06;101263.97;;;4.98
78225;BMP280;67498;53.650;10.090;2024-02-14T04:04:37;101249.94;;;4.99
78225;BMP280;67498;53.650;10.090;2024-02-14T04:07:04;101249.53;;;4.97
78225;BMP280;67498;53.650;10.090;2024-02-14T04:09:30;101250.28;;;4.98
78225;BMP280;67498;53.650;10.090;2024-02-14T04:11:55;101248.47;;;4.98
78225;BMP280;67498;53.650;10.090;2024-02-14T04:14:20;101248.47;;;4.98
78225;BMP280;67498;53.650;10.090;2024-02-14T04:16:46;101248.47;;;4.98
78225;BMP280;67498;53.650;10.090;2024-02-14T04:19:11;101238.09;;;4.98
78225;BMP280;67498;53.650;10.090;2024-02-14T04:21:38;101231.41;;;4.97
78225;BMP280;67498;53.650;10.090;2024-02-14T04:24:03;101231.41;;;4.97
78225;BMP280;67498;53.650;10.090;2024-02-14T04:26:29;101235.13;;;4.96
78225;BMP280;67498;53.650;10.090;2024-02-14T04:28:54;101231.41;;;4.97
78225;BMP280;67498;53.650;10.090;2024-02-14T04:31:19;101232.19;;;4.98
78225;BMP280;67498;53.650;10.090;2024-02-14T04:33:45;101224.78;;;4.96
78225;BMP280;67498;53.650;10.090;2024-02-14T04:36:15;101222.59;;;4.98
78225;BMP280;67498;53.650;10.090;2024-02-14T04:38:41;101224.44;;;4.98
78225;BMP280;67498;53.650;10.090;2024-02-14T04:41:06;101222.59;;;4.98
78225;BMP280;67498;53.650;10.090;2024-02-14T04:43:31;101212.97;;;4.99
78225;BMP280;67498;53.650;10.090;2024-02-14T04:45:56;101212.97;;;4.99
78225;BMP280;67498;53.650;10.090;2024-02-14T04:48:22;101214.06;;;4.98
78225;BMP280;67498;53.650;10.090;2024-02-14T04:50:47;101205.19;;;4.95
78225;BMP280;67498;53.650;10.090;2024-02-14T04:53:12;101210.41;;;4.99
78225;BMP280;67498;53.650;10.090;2024-02-14T04:55:37;101210.06;;;5.00
78225;BMP280;67498;53.650;10.090;2024-02-14T04:58:03;101208.22;;;5.01
78225;BMP280;67498;53.650;10.090;2024-02-14T05:00:29;101197.88;;;5.01
78225;BMP280;67498;53.650;10.090;2024-02-14T05:02:55;101206.38;;;5.01
78225;BMP280;67498;53.650;10.090;2024-02-14T05:05:20;101207.53;;;5.04
78225;BMP280;67498;53.650;10.090;2024-02-14T05:07:46;101200.53;;;5.05
78225;BMP280;67498;53.650;10.090;2024-02-14T05:10:11;101192.75;;;5.05
78225;BMP280;67498;53.650;10.090;2024-02-14T05:12:37;101191.69;;;5.06
78225;BMP280;67498;53.650;10.090;2024-02-14T05:15:02;101188.34;;;5.05
78225;BMP280;67498;53.650;10.090;2024-02-14T05:17:29;101186.50;;;5.06
78225;BMP280;67498;53.650;10.090;2024-02-14T05:19:55;101177.66;;;5.07
78225;BMP280;67498;53.650;10.090;2024-02-14T05:22:20;101175.47;;;5.09
78225;BMP280;67498;53.650;10.090;2024-02-14T05:24:45;101181.06;;;5.11
78225;BMP280;67498;53.650;10.090;2024-02-14T05:27:11;101184.06;;;5.13
78225;BMP280;67498;53.650;10.090;2024-02-14T05:29:36;101185.53;;;5.14
78225;BMP280;67498;53.650;10.090;2024-02-14T05:32:01;101168.94;;;5.15
78225;BMP280;67498;53.650;10.090;2024-02-14T05:34:27;101185.22;;;5.15
78225;BMP280;67498;53.650;10.090;2024-02-14T05:36:52;101183.03;;;5.17
78225;BMP280;67498;53.650;10.090;2024-02-14T05:39:17;101179.69;;;5.17
78225;BMP280;67498;53.650;10.090;2024-02-14T05:41:44;101172.69;;;5.17
78225;BMP280;67498;53.650;10.090;2024-02-14T05:44:09;101178.28;;;5.19
78225;BMP280;67498;53.650;10.090;2024-02-14T05:46:34;101167.56;;;5.21
78225;BMP280;67498;53.650;10.090;2024-02-14T05:48:59;101169.81;;;5.22
78225;BMP280;67498;53.650;10.090;2024-02-14T05:51:25;101159.88;;;5.24
78225;BMP280;67498;53.650;10.090;2024-02-14T05:53:50;101163.63;;;5.27
78225;BMP280;67498;53.650;10.090;2024-02-14T05:56:16;101170.28;;;5.28
78225;BMP280;67498;53.650;10.090;2024-02-14T05:58:41;101171.44;;;5.31
78225;BMP280;67498;53.650;10.090;2024-02-14T06:01:06;101171.50;;;5.34
78225;BMP280;67498;53.650;10.090;2024-02-14T06:03:32;101166.06;;;5.39
78225;BMP280;67498;53.650;10.090;2024-02-14T06:05:57;101171.25;;;5.39
78225;BMP280;67498;53.650;10.090;2024-02-14T06:08:22;101172.41;;;5.42
78225;BMP280;67498;53.650;10.090;2024-02-14T06:10:49;101165.38;;;5.42
78225;BMP280;67498;53.650;10.090;2024-02-14T06:13:14;101162.03;;;5.42
78225;BMP280;67498;53.650;10.090;2024-02-14T06:15:39;101161.72;;;5.43
78225;BMP280;67498;53.650;10.090;2024-02-14T06:18:05;101159.13;;;5.43
78225;BMP280;67498;53.650;10.090;2024-02-14T06:20:30;101156.91;;;5.45
78225;BMP280;67498;53.650;10.090;2024-02-14T06:22:55;101156.97;;;5.49
78225;BMP280;67498;53.650;10.090;2024-02-14T06:25:21;101154.78;;;5.51
78225;BMP280;67498;53.650;10.090;2024-02-14T06:27:46;101143.63;;;5.47
78225;BMP280;67498;53.650;10.090;2024-02-14T06:30:12;101138.16;;;5.52
78225;BMP280;67498;53.650;10.090;2024-02-14T06:32:37;101154.44;;;5.53
78225;BMP280;67498;53.650;10.090;2024-02-14T06:35:03;101145.91;;;5.52
78225;BMP280;67498;53.650;10.090;2024-02-14T06:37:28;101147.44;;;5.53
78225;BMP280;67498;53.650;10.090;2024-02-14T06:39:53;101157.09;;;5.56
78225;BMP280;67498;53.650;10.090;2024-02-14T06:42:18;101150.81;;;5.57
78225;BMP280;67498;53.650;10.090;2024-02-14T06:44:44;101155.34;;;5.60
78225;BMP280;67498;53.650;10.090;2024-02-14T06:47:10;101147.56;;;5.60
78225;BMP280;67498;53.650;10.090;2024-02-14T06:49:35;101156.81;;;5.61
78225;BMP280;67498;53.650;10.090;2024-02-14T06:52:00;101157.19;;;5.63
78225;BMP280;67498;53.650;10.090;2024-02-14T06:54:26;101156.88;;;5.65
78225;BMP280;67498;53.650;10.090;2024-02-14T06:56:51;101156.50;;;5.66
78225;BMP280;67498;53.650;10.090;2024-02-14T06:59:16;101152.84;;;5.67
78225;BMP280;67498;53.650;10.090;2024-02-14T07:01:41;101144.72;;;5.69
78225;BMP280;67498;53.650;10.090;2024-02-14T07:04:07;101158.81;;;5.72
78225;BMP280;67498;53.650;10.090;2024-02-14T07:06:32;101157.00;;;5.72
78225;BMP280;67498;53.650;10.090;2024-02-14T07:08:57;101158.16;;;5.75
78225;BMP280;67498;53.650;10.090;2024-02-14T07:11:23;101151.88;;;5.76
78225;BMP280;67498;53.650;10.090;2024-02-14T07:13:49;101148.94;;;5.77
78225;BMP280;67498;53.650;10.090;2024-02-14T07:16:14;101161.16;;;5.77
78225;BMP280;67498;53.650;10.090;2024-02-14T07:18:40;101151.16;;;5.79
78225;BMP280;67498;53.650;10.090;2024-02-14T07:21:05;101158.59;;;5.80
78225;BMP280;67498;53.650;10.090;2024-02-14T07:23:31;101153.06;;;5.82
78225;BMP280;67498;53.650;10.090;2024-02-14T07:25:56;101160.47;;;5.83
78225;BMP280;67498;53.650;10.090;2024-02-14T07:28:22;101159.03;;;5.86
78225;BMP280;67498;53.650;10.090;2024-02-14T07:30:47;101156.13;;;5.87
78225;BMP280;67498;53.650;10.090;2024-02-14T07:33:12;101158.38;;;5.89
78225;BMP280;67498;53.650;10.090;2024-02-14T07:35:38;101160.28;;;5.92
78225;BMP280;67498;53.650;10.090;2024-02-14T07:38:03;101161.75;;;5.93
78225;BMP280;67498;53.650;10.090;2024-02-14T07:40:28;101162.50;;;5.93
78225;BMP280;67498;53.650;10.090;2024-02-14T07:42:56;101154.03;;;5.97
78225;BMP280;67498;53.650;10.090;2024-02-14T07:45:21;101150.34;;;5.98
78225;BMP280;67498;53.650;10.090;2024-02-14T07:47:49;101157.78;;;5.99
78225;BMP280;67498;53.650;10.090;2024-02-14T07:50:14;101151.16;;;6.02
78225;BMP280;67498;53.650;10.090;2024-02-14T07:52:43;101146.72;;;6.02
78225;BMP280;67498;53.650;10.090;2024-02-14T07:55:09;101149.72;;;6.04
78225;BMP280;67498;53.650;10.090;2024-02-14T07:57:41;101146.78;;;6.06
78225;BMP280;67498;53.650;10.090;2024-02-14T08:00:07;101139.75;;;6.06
78225;BMP280;67498;53.650;10.090;2024-02-14T08:02:33;101144.94;;;6.10
78225;BMP280;67498;53.650;10.090;2024-02-14T08:04:58;101144.59;;;6.11
78225;BMP280;67498;53.650;10.090;2024-02-14T08:07:24;101138.31;;;6.12
78225;BMP280;67498;53.650;10.090;2024-02-14T08:09:49;101143.56;;;6.16
78225;BMP280;67498;53.650;10.090;2024-02-14T08:12:14;101142.13;;;6.19
78225;BMP280;67498;53.650;10.090;2024-02-14T08:14:39;101145.13;;;6.21
78225;BMP280;67498;53.650;10.090;2024-02-14T08:17:05;101147.72;;;6.24
78225;BMP280;67498;53.650;10.090;2024-02-14T08:19:30;101148.50;;;6.25
78225;BMP280;67498;53.650;10.090;2024-02-14T08:21:55;101146.28;;;6.27
78225;BMP280;67498;53.650;10.090;2024-02-14T08:24:27;101145.63;;;6.30
78225;BMP280;67498;53.650;10.090;2024-02-14T08:26:52;101141.56;;;6.32
78225;BMP280;67498;53.650;10.090;2024-02-14T08:29:18;101141.97;;;6.34
78225;BMP280;67498;53.650;10.090;2024-02-14T08:31:43;101133.81;;;6.36
78225;BMP280;67498;53.650;10.090;2024-02-14T08:34:09;101142.00;;;6.38
78225;BMP280;67498;53.650;10.090;2024-02-14T08:36:35;101143.56;;;6.43
78225;BMP280;67498;53.650;10.090;2024-02-14T08:39:06;101146.53;;;6.45
78225;BMP280;67498;53.650;10.090;2024-02-14T08:41:32;101139.16;;;6.47
78225;BMP280;67498;53.650;10.090;2024-02-14T08:43:57;101139.91;;;6.47
78225;BMP280;67498;53.650;10.090;2024-02-14T08:46:22;101145.50;;;6.49
78225;BMP280;67498;53.650;10.090;2024-02-14T08:48:48;101141.44;;;6.52
78225;BMP280;67498;53.650;10.090;2024-02-14T08:51:14;101141.09;;;6.53
78225;BMP280;67498;53.650;10.090;2024-02-14T08:53:39;101149.31;;;6.59
78225;BMP280;67498;53.650;10.090;2024-02-14T08:56:07;101157.13;;;6.63
78225;BMP280;67498;53.650;10.090;2024-02-14T08:58:34;101150.50;;;6.65
78225;BMP280;67498;53.650;10.090;2024-02-14T09:01:00;101150.88;;;6.67
78225;BMP280;67498;53.650;10.090;2024-02-14T09:03:25;101148.69;;;6.69
78225;BMP280;67498;53.650;10.090;2024-02-14T09:05:50;101151.34;;;6.73
78225;BMP280;67498;53.650;10.090;2024-02-14T09:08:17;101149.88;;;6.75
78225;BMP280;67498;53.650;10.090;2024-02-14T09:10:42;101155.84;;;6.79
78225;BMP280;67498;53.650;10.090;2024-02-14T09:13:08;101162.94;;;6.82
78225;BMP280;67498;53.650;10.090;2024-02-14T09:15:34;101161.13;;;6.87
78225;BMP280;67498;53.650;10.090;2024-02-14T09:17:59;101161.16;;;6.90
78225;BMP280;67498;53.650;10.090;2024-02-14T09:20:25;101160.09;;;6.95
78225;BMP280;67498;53.650;10.090;2024-02-14T09:22:51;101167.91;;;6.98
78225;BMP280;67498;53.650;10.090;2024-02-14T09:25:16;101155.72;;;7.02
78225;BMP280;67498;53.650;10.090;2024-02-14T09:27:41;101165.78;;;7.07
78225;BMP280;67498;53.650;10.090;2024-02-14T09:30:08;101162.13;;;7.12
78225;BMP280;67498;53.650;10.090;2024-02-14T09:32:34;101153.25;;;7.13
78225;BMP280;67498;53.650;10.090;2024-02-14T09:34:59;101158.09;;;7.18
78225;BMP280;67498;53.650;10.090;2024-02-14T09:37:25;101157.72;;;7.20
78225;BMP280;67498;53.650;10.090;2024-02-14T09:39:50;101170.03;;;7.23
78225;BMP280;67498;53.650;10.090;2024-02-14T09:42:16;101153.00;;;7.25
78225;BMP280;67498;53.650;10.090;2024-02-14T09:44:45;101150.78;;;7.27
78225;BMP280;67498;53.650;10.090;2024-02-14T09:47:12;101159.72;;;7.34
78225;BMP280;67498;53.650;10.090;2024-02-14T09:49:39;101152.72;;;7.38
78225;BMP280;67498;53.650;10.090;2024-02-14T09:52:05;101150.91;;;7.42
78225;BMP280;67498;53.650;10.090;2024-02-14T09:54:32;101155.78;;;7.47
78225;BMP280;67498;53.650;10.090;2024-02-14T09:57:02;101164.72;;;7.49
78225;BMP280;67498;53.650;10.090;2024-02-14T09:59:28;101159.50;;;7.53
78225;BMP280;67498;53.650;10.090;2024-02-14T10:01:54;101163.25;;;7.56
78225;BMP280;67498;53.650;10.090;2024-02-14T10:04:19;101169.59;;;7.62
78225;BMP280;67498;53.650;10.090;2024-02-14T10:06:45;101165.94;;;7.66
78225;BMP280;67498;53.650;10.090;2024-02-14T10:09:10;101167.88;;;7.73
78225;BMP280;67498;53.650;10.090;2024-02-14T10:11:37;101171.97;;;7.78
78225;BMP280;67498;53.650;10.090;2024-02-14T10:14:04;101168.66;;;7.84
78225;BMP280;67498;53.650;10.090;2024-02-14T10:16:34;101168.31;;;7.89
78225;BMP280;67498;53.650;10.090;2024-02-14T10:19:00;101170.22;;;7.96
78225;BMP280;67498;53.650;10.090;2024-02-14T10:21:25;101175.44;;;8.00
78225;BMP280;67498;53.650;10.090;2024-02-14T10:23:53;101177.34;;;8.03
78225;BMP280;67498;53.650;10.090;2024-02-14T10:26:19;101178.47;;;8.05
78225;BMP280;67498;53.650;10.090;2024-02-14T10:28:45;101179.63;;;8.11
78225;BMP280;67498;53.650;10.090;2024-02-14T10:31:11;101175.94;;;8.16
78225;BMP280;67498;53.650;10.090;2024-02-14T10:33:37;101182.25;;;8.22
78225;BMP280;67498;53.650;10.090;2024-02-14T10:36:03;101173.38;;;8.27
78225;BMP280;67498;53.650;10.090;2024-02-14T10:38:32;101185.69;;;8.33
78225;BMP280;67498;53.650;10.090;2024-02-14T10:40:59;101187.94;;;8.38
78225;BMP280;67498;53.650;10.090;2024-02-14T10:43:25;101184.97;;;8.43
78225;BMP280;67498;53.650;10.090;2024-02-14T10:45:52;101183.50;;;8.50
78225;BMP280;67498;53.650;10.090;2024-02-14T10:48:19;101177.97;;;8.55
78225;BMP280;67498;53.650;10.090;2024-02-14T10:50:49;101180.19;;;8.60
78225;BMP280;67498;53.650;10.090;2024-02-14T10:53:14;101187.31;;;8.66
78225;BMP280;67498;53.650;10.090;2024-02-14T10:55:45;101181.00;;;8.71
78225;BMP280;67498;53.650;10.090;2024-02-14T10:58:11;101185.84;;;8.76
78225;BMP280;67498;53.650;10.090;2024-02-14T11:00:37;101183.25;;;8.83
78225;BMP280;67498;53.650;10.090;2024-02-14T11:03:03;101191.47;;;8.89
78225;BMP280;67498;53.650;10.090;2024-02-14T11:05:29;101181.78;;;8.93
78225;BMP280;67498;53.650;10.090;2024-02-14T11:07:54;101189.63;;;9.00
78225;BMP280;67498;53.650;10.090;2024-02-14T11:10:21;101191.50;;;9.07
78225;BMP280;67498;53.650;10.090;2024-02-14T11:12:48;101185.53;;;9.13
78225;BMP280;67498;53.650;10.090;2024-02-14T11:15:22;101195.22;;;9.20
78225;BMP280;67498;53.650;10.090;2024-02-14T11:17:49;101187.81;;;9.26
78225;BMP280;67498;53.650;10.090;2024-02-14T11:20:19;101190.44;;;9.33
78225;BMP280;67498;53.650;10.090;2024-02-14T11:23:00;101185.94;;;9.37
78225;BMP280;67498;53.650;10.090;2024-02-14T11:25:29;101188.91;;;9.39
78225;BMP280;67498;53.650;10.090;2024-02-14T11:27:57;101194.50;;;9.41
78225;BMP280;67498;53.650;10.090;2024-02-14T11:30:33;101199.75;;;9.45
78225;BMP280;67498;53.650;10.090;2024-02-14T11:33:26;101187.81;;;9.40
78225;BMP280;67498;53.650;10.090;2024-02-14T11:35:53;101196.38;;;9.48
78225;BMP280;67498;53.650;10.090;2024-02-14T11:38:22;101189.66;;;9.50
78225;BMP280;67498;53.650;10.090;2024-02-14T11:40:50;101203.81;;;9.53
78225;BMP280;67498;53.650;10.090;2024-02-14T11:43:19;101209.00;;;9.56
78225;BMP280;67498;53.650;10.090;2024-02-14T11:45:45;101197.13;;;9.59
78225;BMP280;67498;53.650;10.090;2024-02-14T11:48:12;101202.34;;;9.63
78225;BMP280;67498;53.650;10.090;2024-02-14T11:50:41;101205.28;;;9.68
78225;BMP280;67498;53.650;10.090;2024-02-14T11:53:09;101194.88;;;9.72
78225;BMP280;67498;53.650;10.090;2024-02-14T11:55:37;101204.91;;;9.77
78225;BMP280;67498;53.650;10.090;2024-02-14T11:58:09;101204.91;;;9.80
78225;BMP280;67498;53.650;10.090;2024-02-14T12:00:37;101206.38;;;9.85
78225;BMP280;67498;53.650;10.090;2024-02-14T12:03:07;101193.34;;;9.85
78225;BMP280;67498;53.650;10.090;2024-02-14T12:05:33;101208.97;;;9.92
78225;BMP280;67498;53.650;10.090;2024-02-14T12:07:59;101200.44;;;9.92
78225;BMP280;67498;53.650;10.090;2024-02-14T12:10:24;101207.13;;;9.96
78225;BMP280;67498;53.650;10.090;2024-02-14T12:12:50;101214.97;;;10.00
78225;BMP280;67498;53.650;10.090;2024-02-14T12:15:16;101210.06;;;10.02
78225;BMP280;67498;53.650;10.090;2024-02-14T12:17:41;101206.00;;;10.04
78225;BMP280;67498;53.650;10.090;2024-02-14T12:20:10;101211.56;;;10.10
78225;BMP280;67498;53.650;10.090;2024-02-14T12:22:39;101212.69;;;10.13
78225;BMP280;67498;53.650;10.090;2024-02-14T12:25:06;101211.19;;;10.15
78225;BMP280;67498;53.650;10.090;2024-02-14T12:27:33;101214.91;;;10.18
78225;BMP280;67498;53.650;10.090;2024-02-14T12:29:59;101211.53;;;10.21
78225;BMP280;67498;53.650;10.090;2024-02-14T12:32:24;101211.53;;;10.24
78225;BMP280;67498;53.650;10.090;2024-02-14T12:34:49;101214.53;;;10.26
78225;BMP280;67498;53.650;10.090;2024-02-14T12:37:15;101219.72;;;10.30
78225;BMP280;67498;53.650;10.090;2024-02-14T12:39:40;101218.97;;;10.33
78225;BMP280;67498;53.650;10.090;2024-02-14T12:42:05;101223.78;;;10.38
78225;BMP280;67498;53.650;10.090;2024-02-14T12:44:31;101220.44;;;10.41
78225;BMP280;67498;53.650;10.090;2024-02-14T12:46:57;101224.88;;;10.44
78225;BMP280;67498;53.650;10.090;2024-02-14T12:49:23;101222.63;;;10.46
78225;BMP280;67498;53.650;10.090;2024-02-14T12:51:51;101219.28;;;10.49
78225;BMP280;67498;53.650;10.090;2024-02-14T12:54:16;101222.25;;;10.51
78225;BMP280;67498;53.650;10.090;2024-02-14T12:56:42;101221.47;;;10.54
78225;BMP280;67498;53.650;10.090;2024-02-14T12:59:07;101222.63;;;10.57
78225;BMP280;67498;53.650;10.090;2024-02-14T13:01:35;101228.94;;;10.60
78225;BMP280;67498;53.650;10.090;2024-02-14T13:04:00;101218.88;;;10.58
78225;BMP280;67498;53.650;10.090;2024-02-14T13:06:27;101228.91;;;10.67
78225;BMP280;67498;53.650;10.090;2024-02-14T13:08:52;101224.03;;;10.72
78225;BMP280;67498;53.650;10.090;2024-02-14T13:11:18;101226.59;;;10.76
78225;BMP280;67498;53.650;10.090;2024-02-14T13:13:44;101232.94;;;10.82
78225;BMP280;67498;53.650;10.090;2024-02-14T13:16:09;101229.53;;;10.85
78225;BMP280;67498;53.650;10.090;2024-02-14T13:18:34;101235.13;;;10.87
78225;BMP280;67498;53.650;10.090;2024-02-14T13:21:00;101234.38;;;10.87
78225;BMP280;67498;53.650;10.090;2024-02-14T13:23:26;101236.25;;;10.86
78225;BMP280;67498;53.650;10.090;2024-02-14T13:25:51;101240.75;;;10.86
78225;BMP280;67498;53.650;10.090;2024-02-14T13:28:16;101228.84;;;10.81
78225;BMP280;67498;53.650;10.090;2024-02-14T13:30:42;101242.59;;;10.85
78225;BMP280;67498;53.650;10.090;2024-02-14T13:33:07;101243.75;;;10.84
78225;BMP280;67498;53.650;10.090;2024-02-14T13:35:35;101242.25;;;10.83
78225;BMP280;67498;53.650;10.090;2024-02-14T13:38:03;101236.28;;;10.83
78225;BMP280;67498;53.650;10.090;2024-02-14T13:40:30;101242.59;;;10.85
78225;BMP280;67498;53.650;10.090;2024-02-14T13:42:55;101229.16;;;10.87
78225;BMP280;67498;53.650;10.090;2024-02-14T13:45:21;101232.56;;;10.84
78225;BMP280;67498;53.650;10.090;2024-02-14T13:47:47;101235.88;;;10.88